createdAt,value
2019-05-06T00:00:13.794Z,50.8
2019-05-06T00:02:58.440Z,50.8
2019-05-06T00:11:12.386Z,50.7
2019-05-06T00:16:41.663Z,50.8
2019-05-06T00:19:26.313Z,50.9
2019-05-06T00:33:09.519Z,50.7
2019-05-06T00:35:54.167Z,50.7
2019-05-06T00:37:25.051Z,50.8
2019-05-06T00:41:23.463Z,50.8
2019-05-06T00:44:08.114Z,50.7
2019-05-06T00:49:37.397Z,50.8
2019-05-06T00:52:22.039Z,50.8
2019-05-06T01:00:36.224Z,50.8
2019-05-06T01:03:20.617Z,50.8
2019-05-06T01:04:51.486Z,50.9
2019-05-06T01:06:05.262Z,50.9
2019-05-06T01:08:49.909Z,50.9
2019-05-06T01:14:19.196Z,50.9
2019-05-06T01:17:03.835Z,50.9
2019-05-06T01:22:33.114Z,50.9
2019-05-06T01:25:17.761Z,50.9
2019-05-06T01:30:47.106Z,51.1
2019-05-06T01:32:17.924Z,51.2
2019-05-06T01:39:00.098Z,51.2
2019-05-06T01:41:45.632Z,51.2
2019-05-06T01:44:30.273Z,51.1
2019-05-06T01:47:14.909Z,51.2
2019-05-06T01:49:59.552Z,51.1
2019-05-06T01:52:44.200Z,51.1
2019-05-06T01:55:28.832Z,51.1
2019-05-06T01:59:44.365Z,51
2019-05-06T02:06:27.415Z,51
2019-05-06T02:11:56.710Z,51
2019-05-06T02:20:10.642Z,50.9
2019-05-06T02:22:55.275Z,50.9
2019-05-06T02:27:10.799Z,50.9
2019-05-06T02:31:09.021Z,50.9
2019-05-06T02:42:07.786Z,50.8
2019-05-06T02:44:52.428Z,50.9
2019-05-06T02:47:37.098Z,50.9
2019-05-06T02:53:06.036Z,51.1
2019-05-06T02:54:37.238Z,51
2019-05-06T02:55:51.118Z,51
2019-05-06T03:01:20.030Z,51.1
2019-05-06T03:04:04.946Z,51.2
2019-05-06T03:09:34.224Z,51.1
2019-05-06T03:12:19.143Z,51.1
2019-05-06T03:17:48.244Z,51
2019-05-06T03:20:32.796Z,51
2019-05-06T03:22:03.685Z,50.9
2019-05-06T03:26:05.122Z,50.9
2019-05-06T03:28:46.740Z,50.9
2019-05-06T03:34:16.030Z,50.9
2019-05-06T03:37:00.673Z,50.8
2019-05-06T03:45:14.593Z,50.8
2019-05-06T03:49:30.121Z,50.8
2019-05-06T03:50:43.900Z,50.8
2019-05-06T03:53:28.546Z,50.8
2019-05-06T03:58:57.831Z,50.8
2019-05-06T04:01:42.468Z,50.8
2019-05-06T04:07:11.755Z,50.9
2019-05-06T04:09:56.406Z,50.9
2019-05-06T04:16:56.573Z,50.9
2019-05-06T04:23:39.627Z,50.9
2019-05-06T04:26:24.272Z,51
2019-05-06T04:31:53.585Z,50.9
2019-05-06T04:34:38.192Z,51
2019-05-06T04:40:07.486Z,51
2019-05-06T04:42:52.121Z,50.9
2019-05-06T04:44:23.013Z,50.9
2019-05-06T04:56:35.356Z,50.8
2019-05-06T04:59:20.002Z,50.8
2019-05-06T05:04:49.289Z,50.8
2019-05-06T05:07:33.933Z,50.9
2019-05-06T05:11:49.461Z,50.9
2019-05-06T05:13:03.261Z,50.9
2019-05-06T05:15:47.872Z,50.8
2019-05-06T05:29:31.103Z,52.2
2019-05-06T05:32:15.724Z,48.5
2019-05-06T05:35:00.372Z,36.1
2019-05-06T05:37:45.009Z,40.3
2019-05-06T05:39:15.899Z,43.6
2019-05-06T05:40:29.666Z,45
2019-05-06T05:43:14.307Z,46.1
2019-05-06T05:45:58.949Z,48.3
2019-05-06T05:48:43.063Z,49.2
2019-05-06T05:51:27.476Z,50.2
2019-05-06T05:52:57.995Z,51.4
2019-05-06T05:54:28.511Z,51.3
2019-05-06T05:55:59.013Z,51.5
2019-05-06T05:57:29.525Z,51.8
2019-05-06T06:02:01.067Z,52.1
2019-05-06T06:03:31.625Z,52.5
2019-05-06T06:05:02.095Z,52.3
2019-05-06T06:06:32.606Z,52.2
2019-05-06T06:07:45.781Z,52.4
2019-05-06T06:08:58.951Z,52.6
2019-05-06T06:10:29.046Z,52.6
2019-05-06T06:11:59.098Z,52.7
2019-05-06T06:13:30.496Z,52.9
2019-05-06T06:15:01.008Z,52.4
2019-05-06T06:16:31.515Z,52.4
2019-05-06T06:18:02.033Z,52.3
2019-05-06T06:19:32.538Z,52.5
2019-05-06T06:21:03.059Z,52.8
2019-05-06T06:22:33.585Z,53.1
2019-05-06T06:23:46.749Z,52.7
2019-05-06T06:24:59.911Z,53.2
2019-05-06T06:26:30.425Z,53.5
2019-05-06T06:28:00.968Z,52.9
2019-05-06T06:29:31.457Z,52.7
2019-05-06T06:31:01.975Z,52
2019-05-06T06:34:03.060Z,52
2019-05-06T06:35:33.504Z,51.8
2019-05-06T06:37:04.002Z,51.6
2019-05-06T06:38:34.052Z,51.3
2019-05-06T06:39:47.706Z,51.5
2019-05-06T06:41:00.889Z,51.2
2019-05-06T06:42:31.039Z,51.3
2019-05-06T06:45:32.414Z,51.2
2019-05-06T06:47:02.934Z,51.2
2019-05-06T06:50:03.966Z,51
2019-05-06T06:51:34.479Z,50.9
2019-05-06T06:53:04.977Z,50.1
2019-05-06T06:54:35.528Z,50.1
2019-05-06T06:55:48.071Z,49.9
2019-05-06T07:00:02.882Z,50.3
2019-05-06T07:01:33.379Z,49.5
2019-05-06T07:03:03.089Z,48.6
2019-05-06T07:04:34.409Z,48.6
2019-05-06T07:06:04.091Z,48.4
2019-05-06T07:10:36.475Z,47.4
2019-05-06T07:11:49.623Z,46.8
2019-05-06T07:14:33.320Z,46.6
2019-05-06T07:19:04.855Z,46.3
2019-05-06T07:20:35.365Z,45.5
2019-05-06T07:23:36.391Z,44.5
2019-05-06T07:25:07.000Z,44.7
2019-05-06T07:27:50.477Z,44
2019-05-06T07:29:03.629Z,43.3
2019-05-06T07:30:34.130Z,43
2019-05-06T07:33:35.015Z,42.3
2019-05-06T07:35:05.670Z,42.3
2019-05-06T07:38:06.710Z,41.6
2019-05-06T07:39:37.225Z,42.2
2019-05-06T07:41:07.738Z,41.8
2019-05-06T07:42:38.236Z,42
2019-05-06T07:43:51.409Z,41.2
2019-05-06T07:45:04.580Z,42.2
2019-05-06T07:48:05.616Z,41.2
2019-05-06T07:49:36.125Z,40.7
2019-05-06T07:51:06.628Z,40.9
2019-05-06T07:52:37.145Z,40.4
2019-05-06T07:54:07.743Z,40.8
2019-05-06T07:57:08.688Z,41.2
2019-05-06T07:58:39.193Z,41
2019-05-06T07:59:52.377Z,40.5
2019-05-06T08:01:05.548Z,39.5
2019-05-06T08:02:36.052Z,39.9
2019-05-06T08:04:06.878Z,39.2
2019-05-06T08:07:07.600Z,37.9
2019-05-06T08:08:38.102Z,38
2019-05-06T08:10:08.624Z,37.5
2019-05-06T08:13:09.652Z,35
2019-05-06T08:15:53.206Z,33.4
2019-05-06T08:18:36.889Z,33.2
2019-05-06T08:20:07.038Z,33.7
2019-05-06T08:21:37.090Z,33.8
2019-05-06T08:23:08.425Z,33.9
2019-05-06T08:26:09.489Z,32.1
2019-05-06T08:30:41.030Z,27.1
2019-05-06T08:31:54.157Z,26.4
2019-05-06T08:33:07.338Z,24.8
2019-05-06T08:34:37.847Z,23.6
2019-05-06T08:37:38.875Z,20.2
2019-05-06T08:42:10.414Z,21.3
2019-05-06T08:43:40.925Z,22.1
2019-05-06T08:47:54.984Z,19.6
2019-05-06T08:50:38.674Z,21
2019-05-06T08:52:09.181Z,21.7
2019-05-06T08:56:40.720Z,19.9
2019-05-06T08:59:41.754Z,17.2
2019-05-06T09:01:12.259Z,17.2
2019-05-06T09:03:55.798Z,19.4
2019-05-06T09:05:08.986Z,19.9
2019-05-06T09:06:39.581Z,19.7
2019-05-06T09:08:10.002Z,18
2019-05-06T09:09:40.516Z,17.4
2019-05-06T09:11:11.103Z,16.3
2019-05-06T09:15:42.565Z,15
2019-05-06T09:17:13.084Z,15.2
2019-05-06T09:18:43.597Z,16.4
2019-05-06T09:21:09.847Z,18.7
2019-05-06T09:22:40.032Z,19.3
2019-05-06T09:24:10.831Z,20.1
2019-05-06T09:25:41.359Z,19.7
2019-05-06T09:28:42.369Z,16.2
2019-05-06T09:30:12.887Z,15.7
2019-05-06T09:33:13.903Z,17.4
2019-05-06T09:34:44.417Z,17.9
2019-05-06T09:35:57.602Z,16.3
2019-05-06T09:37:10.773Z,15.6
2019-05-06T09:40:11.800Z,14.1
2019-05-06T09:43:12.827Z,13.5
2019-05-06T09:47:44.381Z,16.4
2019-05-06T09:49:14.881Z,17.2
2019-05-06T09:50:45.390Z,18.6
2019-05-06T09:51:58.567Z,18.9
2019-05-06T09:53:11.606Z,19.9
2019-05-06T09:54:42.106Z,20.7
2019-05-06T09:57:43.190Z,19.3
2019-05-06T09:59:13.645Z,17.8
2019-05-06T10:00:44.191Z,16.6
2019-05-06T10:02:14.675Z,17.9
2019-05-06T10:03:45.208Z,16.6
2019-05-06T10:05:15.697Z,15.5
2019-05-06T10:06:46.320Z,16.5
2019-05-06T10:07:59.243Z,17.9
2019-05-06T10:13:43.953Z,21.1
2019-05-06T10:15:14.483Z,21.8
2019-05-06T10:18:15.630Z,22.8
2019-05-06T10:21:16.527Z,20
2019-05-06T10:22:47.025Z,17.9
2019-05-06T10:24:00.202Z,15.8
2019-05-06T10:25:13.384Z,15.6
2019-05-06T10:26:43.896Z,14.6
2019-05-06T10:28:14.409Z,15.1
2019-05-06T10:32:45.945Z,15.9
2019-05-06T10:35:46.966Z,16.9
2019-05-06T10:37:17.491Z,17.4
2019-05-06T10:38:47.993Z,15.5
2019-05-06T10:42:44.715Z,14.3
2019-05-06T10:44:15.390Z,14.4
2019-05-06T10:45:45.745Z,13.9
2019-05-06T10:47:16.251Z,14
2019-05-06T10:50:17.278Z,14.2
2019-05-06T10:51:47.792Z,14.1
2019-05-06T10:54:48.823Z,15.1
2019-05-06T10:56:02.072Z,16.3
2019-05-06T10:57:14.892Z,17.1
2019-05-06T11:00:15.918Z,18.8
2019-05-06T11:01:46.419Z,19.3
2019-05-06T11:06:17.970Z,19.2
2019-05-06T11:07:48.049Z,19.4
2019-05-06T11:09:18.994Z,18.6
2019-05-06T11:10:49.049Z,19.1
2019-05-06T11:12:02.675Z,19
2019-05-06T11:14:46.359Z,19.4
2019-05-06T11:16:16.870Z,19.8
2019-05-06T11:17:47.043Z,20.3
2019-05-06T11:19:17.897Z,20.6
2019-05-06T11:20:48.424Z,21.4
2019-05-06T11:22:18.956Z,21.4
2019-05-06T11:25:19.948Z,22.4
2019-05-06T11:26:50.046Z,22.7
2019-05-06T11:28:03.640Z,23.1
2019-05-06T11:29:16.807Z,23.4
2019-05-06T11:30:47.326Z,23.4
2019-05-06T11:33:48.346Z,24.3
2019-05-06T11:35:18.862Z,24.8
2019-05-06T11:36:49.377Z,24.7
2019-05-06T11:38:19.976Z,24.8
2019-05-06T11:41:20.919Z,25.2
2019-05-06T11:42:51.428Z,25.5
2019-05-06T11:44:04.604Z,25.6
2019-05-06T11:45:17.779Z,26.1
2019-05-06T11:48:18.805Z,26.7
2019-05-06T11:49:49.319Z,25.7
2019-05-06T11:51:19.830Z,25.9
2019-05-06T11:52:50.341Z,25.4
2019-05-06T11:54:20.860Z,25.7
2019-05-06T11:55:51.372Z,25.5
2019-05-06T11:58:52.398Z,25.1
2019-05-06T12:02:49.127Z,25.4
2019-05-06T12:04:19.686Z,25.5
2019-05-06T12:05:50.154Z,26.5
2019-05-06T12:08:51.164Z,26
2019-05-06T12:11:52.192Z,25.9
2019-05-06T12:13:22.712Z,26.5
2019-05-06T12:14:53.216Z,26.7
2019-05-06T12:16:06.395Z,27.2
2019-05-06T12:17:19.461Z,26.7
2019-05-06T12:18:49.940Z,26.9
2019-05-06T12:21:50.989Z,27.1
2019-05-06T12:23:21.483Z,27.1
2019-05-06T12:24:51.982Z,27.3
2019-05-06T12:26:22.564Z,26.9
2019-05-06T12:27:53.001Z,26.8
2019-05-06T12:30:54.037Z,26.6
2019-05-06T12:32:07.227Z,26.4
2019-05-06T12:33:20.248Z,26.5
2019-05-06T12:34:50.752Z,26.4
2019-05-06T12:36:21.270Z,26.5
2019-05-06T12:37:51.837Z,26.3
2019-05-06T12:42:23.321Z,26.1
2019-05-06T12:43:53.833Z,26.3
2019-05-06T12:45:24.346Z,26.7
2019-05-06T12:46:54.085Z,26.6
2019-05-06T12:48:08.037Z,26.7
2019-05-06T12:49:21.069Z,26.9
2019-05-06T12:52:22.088Z,27.1
2019-05-06T12:53:52.602Z,27.1
2019-05-06T12:59:54.647Z,27.4
2019-05-06T13:01:25.165Z,27.8
2019-05-06T13:04:08.071Z,27.9
2019-05-06T13:05:21.893Z,27.8
2019-05-06T13:06:52.397Z,27.8
2019-05-06T13:09:53.421Z,27.7
2019-05-06T13:11:23.933Z,27.6
2019-05-06T13:14:24.958Z,27.5
2019-05-06T13:15:55.477Z,27.3
2019-05-06T13:20:09.533Z,27.3
2019-05-06T13:21:22.707Z,27.6
2019-05-06T13:25:54.243Z,28
2019-05-06T13:27:24.746Z,28.4
2019-05-06T13:30:25.779Z,28.6
2019-05-06T13:33:26.807Z,28.5
2019-05-06T13:34:57.316Z,28.5
2019-05-06T13:36:10.488Z,28.4
2019-05-06T13:37:23.525Z,28.5
2019-05-06T13:38:54.032Z,28.6
2019-05-06T13:40:24.550Z,28.8
2019-05-06T13:44:56.079Z,28.7
2019-05-06T13:49:27.634Z,28.6
2019-05-06T13:50:58.127Z,28.6
2019-05-06T13:52:11.314Z,28.7
2019-05-06T13:53:24.486Z,29.3
2019-05-06T13:54:55.000Z,29.6
2019-05-06T13:56:25.511Z,29.2
2019-05-06T13:57:56.027Z,29.2
2019-05-06T13:59:26.530Z,29
2019-05-06T14:00:57.042Z,29.1
2019-05-06T14:03:58.066Z,29.1
2019-05-06T14:05:28.611Z,29.2
2019-05-06T14:08:12.129Z,30.1
2019-05-06T14:09:25.171Z,29.7
2019-05-06T14:10:55.673Z,29.5
2019-05-06T14:12:26.236Z,29.3
2019-05-06T14:15:27.213Z,29.6
2019-05-06T14:16:57.719Z,29.1
2019-05-06T14:18:28.231Z,29.3
2019-05-06T14:22:59.777Z,29.6
2019-05-06T14:24:12.954Z,29.5
2019-05-06T14:25:26.126Z,29.5
2019-05-06T14:26:56.631Z,29.4
2019-05-06T14:28:27.168Z,29.8
2019-05-06T14:31:28.017Z,29.7
2019-05-06T14:32:58.074Z,30
2019-05-06T14:35:59.071Z,29.6
2019-05-06T14:37:30.224Z,29.8
2019-05-06T14:39:00.734Z,30.1
2019-05-06T14:40:13.913Z,29.8
2019-05-06T14:41:27.009Z,29.9
2019-05-06T14:42:57.607Z,29.8
2019-05-06T14:45:58.636Z,30.5
2019-05-06T14:47:29.140Z,30.3
2019-05-06T14:48:59.643Z,30.3
2019-05-06T14:50:30.151Z,30.1
2019-05-06T14:52:00.669Z,30.9
2019-05-06T14:53:31.175Z,30.9
2019-05-06T14:55:01.689Z,31.1
2019-05-06T14:56:14.879Z,31.4
2019-05-06T15:00:28.926Z,31.5
2019-05-06T15:01:59.437Z,31.8
2019-05-06T15:05:00.464Z,31.6
2019-05-06T15:06:30.976Z,31.9
2019-05-06T15:08:01.506Z,32
2019-05-06T15:11:02.508Z,32.6
2019-05-06T15:12:15.682Z,32.4
2019-05-06T15:13:28.870Z,32.3
2019-05-06T15:14:59.037Z,32.4
2019-05-06T15:16:29.884Z,32.6
2019-05-06T15:19:30.950Z,33.7
2019-05-06T15:21:01.465Z,34.6
2019-05-06T15:22:31.932Z,34
2019-05-06T15:25:33.000Z,33.9
2019-05-06T15:27:03.483Z,34.4
2019-05-06T15:28:16.653Z,33.9
2019-05-06T15:29:29.829Z,34.7
2019-05-06T15:32:30.857Z,35
2019-05-06T15:34:01.357Z,35.3
2019-05-06T15:35:31.878Z,35.2
2019-05-06T15:38:32.935Z,36
2019-05-06T15:40:03.041Z,35.7
2019-05-06T15:41:33.923Z,36.3
2019-05-06T15:43:04.447Z,36
2019-05-06T15:44:17.607Z,36
2019-05-06T15:45:30.797Z,36.3
2019-05-06T15:47:01.299Z,36.6
2019-05-06T15:48:31.832Z,37
2019-05-06T15:50:02.320Z,37.9
2019-05-06T15:51:32.840Z,38.3
2019-05-06T15:53:03.353Z,38.1
2019-05-06T15:54:33.864Z,38.3
2019-05-06T15:56:04.369Z,38.5
2019-05-06T15:57:34.886Z,38.8
2019-05-06T15:59:05.397Z,38.8
2019-05-06T16:00:18.005Z,38.7
2019-05-06T16:03:02.026Z,38.7
2019-05-06T16:04:32.775Z,38.4
2019-05-06T16:06:03.284Z,39.1
2019-05-06T16:07:33.797Z,39.3
2019-05-06T16:09:04.349Z,39.6
2019-05-06T16:10:34.823Z,40
2019-05-06T16:13:35.843Z,39.6
2019-05-06T16:15:06.355Z,40
2019-05-06T16:16:19.528Z,40
2019-05-06T16:17:32.710Z,39.9
2019-05-06T16:19:03.215Z,40
2019-05-06T16:22:04.248Z,40
2019-05-06T16:23:34.077Z,40.1
2019-05-06T16:25:05.292Z,40.4
2019-05-06T16:26:35.776Z,40.6
2019-05-06T16:28:06.291Z,40.7
2019-05-06T16:29:36.799Z,41
2019-05-06T16:31:07.314Z,41.2
2019-05-06T16:32:20.495Z,41.6
2019-05-06T16:33:33.672Z,41.9
2019-05-06T16:35:04.187Z,42.2
2019-05-06T16:36:34.698Z,42.2
2019-05-06T16:38:05.216Z,42.6
2019-05-06T16:41:06.227Z,42.6
2019-05-06T16:42:36.748Z,43.1
2019-05-06T16:44:07.256Z,42.5
2019-05-06T16:45:37.766Z,42.5
2019-05-06T16:47:08.273Z,43
2019-05-06T16:48:21.460Z,43.3
2019-05-06T16:49:34.642Z,43.4
2019-05-06T16:52:35.647Z,43.6
2019-05-06T16:55:36.689Z,43.7
2019-05-06T16:57:07.186Z,43.6
2019-05-06T16:58:37.075Z,43.7
2019-05-06T17:00:08.215Z,43.6
2019-05-06T17:01:38.741Z,43.6
2019-05-06T17:03:09.025Z,43.8
2019-05-06T17:04:22.411Z,43.7
2019-05-06T17:07:06.107Z,43.4
2019-05-06T17:08:36.613Z,43.5
2019-05-06T17:10:07.122Z,43.6
2019-05-06T17:11:37.643Z,43.5
2019-05-06T17:14:38.685Z,44
2019-05-06T17:16:09.173Z,43.9
2019-05-06T17:20:23.235Z,43.7
2019-05-06T17:21:36.408Z,43.8
2019-05-06T17:23:06.920Z,43.6
2019-05-06T17:24:37.434Z,43.6
2019-05-06T17:26:07.939Z,43.6
2019-05-06T17:30:39.486Z,43.6
2019-05-06T17:33:40.509Z,43.8
2019-05-06T17:35:11.031Z,43.9
2019-05-06T17:36:24.198Z,44.1
2019-05-06T17:37:38.346Z,44
2019-05-06T17:39:07.883Z,44.1
2019-05-06T17:40:38.395Z,44.2
2019-05-06T17:42:08.911Z,44.2
2019-05-06T17:43:39.418Z,44.4
2019-05-06T17:45:09.931Z,44.6
2019-05-06T17:46:40.044Z,44.8
2019-05-06T17:49:41.468Z,45
2019-05-06T17:51:11.992Z,45.3
2019-05-06T17:52:25.158Z,45.6
2019-05-06T17:53:38.336Z,45.5
2019-05-06T17:55:08.852Z,45.9
2019-05-06T17:58:09.874Z,46.2
2019-05-06T17:59:40.381Z,46.4
2019-05-06T18:04:11.921Z,47.5
2019-05-06T18:05:42.439Z,47.6
2019-05-06T18:07:12.948Z,47.7
2019-05-06T18:08:26.127Z,47.8
2019-05-06T18:09:39.302Z,48
2019-05-06T18:12:40.345Z,48.4
2019-05-06T18:14:10.837Z,48.5
2019-05-06T18:17:11.858Z,48.4
2019-05-06T18:20:12.885Z,48.4
2019-05-06T18:21:43.396Z,48.5
2019-05-06T18:23:13.912Z,48.6
2019-05-06T18:24:27.172Z,48.5
2019-05-06T18:25:40.034Z,48.5
2019-05-06T18:27:10.632Z,48.5
2019-05-06T18:28:41.166Z,48.6
2019-05-06T18:30:11.657Z,48.7
2019-05-06T18:31:42.165Z,48.7
2019-05-06T18:33:12.688Z,48.7
2019-05-06T18:34:43.205Z,48.8
2019-05-06T18:36:13.071Z,49
2019-05-06T18:37:44.285Z,49.1
2019-05-06T18:39:14.747Z,48.9
2019-05-06T18:41:40.944Z,48.6
2019-05-06T18:43:11.457Z,48.8
2019-05-06T18:47:42.982Z,48.5
2019-05-06T18:49:13.499Z,48.3
2019-05-06T18:50:44.011Z,48.3
2019-05-06T18:52:14.528Z,48.3
2019-05-06T18:53:45.038Z,48.4
2019-05-06T18:56:28.593Z,48.1
2019-05-06T18:57:41.077Z,48.1
2019-05-06T18:59:12.277Z,48.2
2019-05-06T19:00:42.800Z,48.2
2019-05-06T19:02:13.298Z,48.3
2019-05-06T19:03:43.815Z,48.2
2019-05-06T19:06:44.831Z,48.4
2019-05-06T19:08:15.347Z,48.5
2019-05-06T19:09:45.896Z,48.7
2019-05-06T19:11:16.375Z,49
2019-05-06T19:12:29.556Z,49
2019-05-06T19:13:42.728Z,49
2019-05-06T19:15:13.237Z,49
2019-05-06T19:16:43.744Z,49
2019-05-06T19:19:44.774Z,49.1
2019-05-06T19:21:15.290Z,49
2019-05-06T19:22:45.803Z,49.6
2019-05-06T19:24:16.313Z,49.8
2019-05-06T19:25:46.834Z,50
2019-05-06T19:28:30.379Z,49.9
2019-05-06T19:29:43.548Z,50.1
2019-05-06T19:31:14.061Z,50.2
2019-05-06T19:34:15.008Z,50.5
2019-05-06T19:35:45.596Z,50.7
2019-05-06T19:37:16.104Z,50.6
2019-05-06T19:40:17.140Z,50.6
2019-05-06T19:41:47.641Z,50.7
2019-05-06T19:43:18.156Z,50.3
2019-05-06T19:44:31.333Z,50.3
2019-05-06T19:45:44.718Z,50.6
2019-05-06T19:47:15.024Z,50.5
2019-05-06T19:48:45.535Z,50.5
2019-05-06T19:50:16.052Z,50.9
2019-05-06T19:51:46.557Z,50.8
2019-05-06T19:53:17.007Z,50.9
2019-05-06T19:56:18.107Z,51.1
2019-05-06T19:57:48.617Z,51.3
2019-05-06T19:59:19.121Z,51.3
2019-05-06T20:01:45.335Z,51.4
2019-05-06T20:03:15.844Z,51.5
2019-05-06T20:04:46.363Z,51.5
2019-05-06T20:06:16.872Z,51.4
2019-05-06T20:07:47.380Z,51.3
2019-05-06T20:09:17.895Z,51.3
2019-05-06T20:10:48.409Z,51.5
2019-05-06T20:12:18.091Z,51.4
2019-05-06T20:15:19.968Z,51.5
2019-05-06T20:16:33.126Z,51.6
2019-05-06T20:17:46.161Z,51.6
2019-05-06T20:19:16.668Z,51.9
2019-05-06T20:20:47.183Z,52.1
2019-05-06T20:23:48.021Z,52.5
2019-05-06T20:25:18.724Z,52.1
2019-05-06T20:26:49.266Z,52.3
2019-05-06T20:28:19.747Z,52.3
2019-05-06T20:29:50.258Z,52.5
2019-05-06T20:32:33.807Z,52.5
2019-05-06T20:33:46.083Z,52.5
2019-05-06T20:35:17.352Z,52.3
2019-05-06T20:36:47.855Z,52.7
2019-05-06T20:38:18.371Z,52.2
2019-05-06T20:39:48.903Z,52.3
2019-05-06T20:42:49.907Z,52.6
2019-05-06T20:44:20.425Z,52.8
2019-05-06T20:45:50.934Z,52.8
2019-05-06T20:47:21.521Z,52.6
2019-05-06T20:48:34.630Z,52.5
2019-05-06T20:51:18.318Z,52.7
2019-05-06T20:52:48.845Z,52.8
2019-05-06T20:54:19.336Z,52.3
2019-05-06T20:55:49.877Z,52.7
2019-05-06T20:57:20.361Z,52.5
2019-05-06T20:58:50.873Z,53.1
2019-05-06T21:00:21.408Z,52.7
2019-05-06T21:01:51.901Z,52.6
2019-05-06T21:04:35.448Z,52.7
2019-05-06T21:05:48.620Z,52.6
2019-05-06T21:07:19.128Z,52.1
2019-05-06T21:08:49.646Z,52.2
2019-05-06T21:10:20.015Z,52.3
2019-05-06T21:14:51.701Z,52.2
2019-05-06T21:16:22.202Z,52.1
2019-05-06T21:17:52.721Z,52.4
2019-05-06T21:19:23.234Z,52.6
2019-05-06T21:20:36.041Z,52.5
2019-05-06T21:21:49.597Z,52.8
2019-05-06T21:23:20.103Z,53
2019-05-06T21:24:50.613Z,53
2019-05-06T21:26:21.228Z,53.1
2019-05-06T21:27:51.630Z,53
2019-05-06T21:29:22.151Z,53.1
2019-05-06T21:32:23.176Z,53.5
2019-05-06T21:33:53.686Z,53.5
2019-05-06T21:35:24.195Z,53.5
2019-05-06T21:36:37.403Z,53.4
2019-05-06T21:37:50.040Z,53.7
2019-05-06T21:39:20.922Z,53.8
2019-05-06T21:40:51.436Z,53.9
2019-05-06T21:42:21.947Z,53.8
2019-05-06T21:43:52.046Z,53.9
2019-05-06T21:45:23.017Z,53.8
2019-05-06T21:46:53.524Z,54
2019-05-06T21:49:54.511Z,54.3
2019-05-06T21:51:25.019Z,54
2019-05-06T21:52:38.019Z,54.1
2019-05-06T21:53:51.375Z,54.1
2019-05-06T21:55:22.451Z,54.3
2019-05-06T21:56:52.004Z,54.3
2019-05-06T21:59:53.429Z,54.7
2019-05-06T22:02:54.453Z,54.5
2019-05-06T22:04:24.956Z,54.4
2019-05-06T22:05:55.476Z,54.7
2019-05-06T22:07:25.984Z,54.8
2019-05-06T22:08:39.162Z,54.6
2019-05-06T22:09:52.386Z,55.2
2019-05-06T22:11:23.039Z,55
2019-05-06T22:12:53.359Z,54.6
2019-05-06T22:14:23.889Z,54.8
2019-05-06T22:18:55.406Z,54.7
2019-05-06T22:21:56.441Z,54.6
2019-05-06T22:23:26.946Z,54.7
2019-05-06T22:24:40.131Z,54.9
2019-05-06T22:27:23.008Z,54.8
2019-05-06T22:28:54.340Z,54.7
2019-05-06T22:30:24.841Z,54.4
2019-05-06T22:31:55.349Z,54.3
2019-05-06T22:33:25.877Z,54.6
2019-05-06T22:34:56.379Z,54.4
2019-05-06T22:36:26.889Z,54.4
2019-05-06T22:37:57.400Z,54.3
2019-05-06T22:39:27.916Z,54.4
2019-05-06T22:40:41.008Z,54.4
2019-05-06T22:41:54.026Z,54.6
2019-05-06T22:43:24.776Z,54.5
2019-05-06T22:46:25.794Z,54.6
2019-05-06T22:47:56.321Z,54.7
2019-05-06T22:49:26.827Z,55.1
2019-05-06T22:50:57.335Z,54.5
2019-05-06T22:52:27.855Z,54.5
2019-05-06T22:53:58.359Z,54.4
2019-05-06T22:55:28.874Z,54.6
2019-05-06T22:56:42.047Z,54.4
2019-05-06T22:57:55.240Z,54.5
2019-05-06T22:59:25.738Z,54.7
2019-05-06T23:00:56.249Z,54.4
2019-05-06T23:02:26.766Z,54.5
2019-05-06T23:05:27.825Z,54.2
2019-05-06T23:08:28.819Z,54.5
2019-05-06T23:11:29.841Z,54.5
2019-05-06T23:12:43.033Z,54.2
2019-05-06T23:13:56.197Z,54.2
2019-05-06T23:19:58.241Z,54.3
2019-05-06T23:21:28.752Z,54.5
2019-05-06T23:22:59.263Z,54.2
2019-05-06T23:24:29.782Z,54.4
2019-05-06T23:26:00.295Z,54.8
2019-05-06T23:28:43.843Z,54.7
2019-05-06T23:29:57.006Z,54.8
2019-05-06T23:31:27.526Z,54.8
2019-05-06T23:32:58.141Z,55
2019-05-06T23:34:28.567Z,55.1
2019-05-06T23:35:59.006Z,55.3
2019-05-06T23:39:00.083Z,55.5
2019-05-06T23:40:30.598Z,56
2019-05-06T23:42:01.107Z,56.2
2019-05-06T23:43:31.632Z,56.4
2019-05-06T23:44:44.793Z,56.4
2019-05-06T23:45:57.975Z,56.7
2019-05-06T23:47:28.481Z,56.5
2019-05-06T23:48:58.996Z,56.6
2019-05-06T23:50:29.511Z,56.6
2019-05-06T23:52:00.019Z,56.9
2019-05-06T23:53:30.541Z,57.1
2019-05-06T23:55:01.052Z,57.5
2019-05-06T23:56:31.557Z,57.6
2019-05-06T23:58:02.076Z,57.3
2019-05-06T23:59:32.584Z,57.2
